Regatta — V7DM3 — position and weather

sailwx.info

Track history (hours):
 
Tides and Currents Weather Stations Pressure Air Temp Water Temp Dewpoint Dewpoint Depression Visibility Wind Speed Wind Dir Waves Ship Positions

Regatta

Last reported at 2018-Jul-20 04:33 UTC. Time now 2018-Jul-22 07:02 UTC.
Position N 58°18' W 136°13'.

Length 180 m; draft 5.7 m.

Type: Passenger vessel. MMSI: 538001664.

Date/timePositionNaut miles runAvg speedWind from/ knotsBaromVisibWave heightAir tempDewpointWater temp
2018-Jul-20 04:33N 58°18' W 136°13'117.6
2018-Jul-20 04:30N 58°18' W 136°12'917.0
2018-Jul-20 04:00N 58°19' W 135°55'917.3
2018-Jul-20 03:30N 58°16' W 135°40'7 0.5
2018-Jul-19 14:40N 58°13' W 135°29'412.5
2018-Jul-19 14:23N 58°15' W 135°35'1112.2
2018-Jul-19 13:30N 58°19' W 135°54'612.2
2018-Jul-19 13:00N 58°20' W 136°05'6 0.2
2018-Jul-18 08:36N 58°18' W 136°16'216.6
2018-Jul-18 08:28N 58°19' W 136°12'715.1
2018-Jul-18 08:00N 58°20' W 135°59'815.7
2018-Jul-18 07:30N 58°18' W 135°44'  
2018-Jul-15 12:35N 54°47' W 131°07'917.9
2018-Jul-15 12:05N 54°38' W 131°09'116.8
2018-Jul-15 12:00N 54°36' W 131°09'917.9
2018-Jul-15 11:30N 54°28' W 131°06'918.0
2018-Jul-15 11:01N 54°19' W 131°03'917.9
2018-Jul-15 10:31N 54°10' W 131°02'917.4
2018-Jul-15 10:00N 54°01' W 131°02'917.3
2018-Jul-15 09:30N 53°53' W 131°03'917.8
2018-Jul-15 09:00N 53°44' W 131°02'918.0
2018-Jul-15 08:30N 53°35' W 131°01'1618.1
2018-Jul-15 07:38N 53°20' W 130°53'418.2
2018-Jul-15 07:25N 53°16' W 130°50'1118.2
2018-Jul-15 06:48N 53°05' W 130°45'517.7
2018-Jul-15 06:30N 53°00' W 130°42'917.9
2018-Jul-15 06:00N 52°52' W 130°37'917.7
2018-Jul-15 05:30N 52°43' W 130°33'917.6
2018-Jul-15 05:00N 52°35' W 130°28'917.7
2018-Jul-15 04:29N 52°26' W 130°23'817.4
2018-Jul-15 04:00N 52°18' W 130°19'917.0
2018-Jul-15 03:30N 52°10' W 130°15'917.5
2018-Jul-15 03:00N 52°02' W 130°11'917.8
2018-Jul-15 02:31N 51°54' W 130°06'816.8
2018-Jul-15 02:00N 51°46' W 130°02'816.7
2018-Jul-15 01:30N 51°39' W 129°53'816.5
2018-Jul-15 01:00N 51°34' W 129°43'917.3
2018-Jul-15 00:30N 51°28' W 129°33'917.2
2018-Jul-15 00:00N 51°22' W 129°22'917.4
2018-Jul-14 23:31N 51°17' W 129°11'917.2
2018-Jul-14 23:00N 51°13' W 128°59'917.9
2018-Jul-14 22:30N 51°11' W 128°45'917.1
2018-Jul-14 22:01N 51°08' W 128°32'917.0
2018-Jul-14 21:31N 51°05' W 128°19'917.3
2018-Jul-14 21:00N 51°03' W 128°06'917.4
2018-Jul-14 20:30N 51°01' W 127°53'713.4
2018-Jul-14 20:00N 50°57' W 127°44'918.0
2018-Jul-14 19:30N 50°52' W 127°33'917.8
2018-Jul-14 19:00N 50°48' W 127°20'917.4
2018-Jul-14 18:30N 50°45' W 127°07'917.4
2018-Jul-14 17:59N 50°41' W 126°54'6017.7
2018-Jul-14 14:37N 50°20' W 125°26'1118.1
2018-Jul-14 14:00N 50°10' W 125°22'713.9
2018-Jul-14 13:30N 50°04' W 125°15'815.5
2018-Jul-14 13:00N 49°57' W 125°09'917.7
2018-Jul-14 12:30N 49°51' W 124°59'917.7
2018-Jul-14 12:00N 49°45' W 124°49'917.2
2018-Jul-14 11:29N 49°38' W 124°40'1117.0
2018-Jul-14 10:51N 49°30' W 124°30'816.7
2018-Jul-14 10:22N 49°26' W 124°19'3016.9
2018-Jul-14 08:36N 49°13' W 123°37'516.1
2018-Jul-14 08:16N 49°10' W 123°30'415.4
2018-Jul-14 08:00N 49°07' W 123°26'815.8
2018-Jul-14 07:30N 49°02' W 123°18'917.4
2018-Jul-14 06:59N 48°56' W 123°08'1014.7
2018-Jul-14 06:18N 48°47' W 123°02'516.3
2018-Jul-14 06:00N 48°44' W 123°08'713.7
2018-Jul-14 05:30N 48°38' W 123°14'917.4
2018-Jul-14 05:01N 48°30' W 123°11'714.3
2018-Jul-14 04:30N 48°23' W 123°15'3810.3
2018-Jul-14 00:51N 47°57' W 122°34'515.6
2018-Jul-14 00:31N 47°53' W 122°28'917.3
2018-Jul-14 00:00N 47°45' W 122°26'815.4
2018-Jul-13 23:30N 47°37' W 122°25'2 4.5
2018-Jul-13 22:58N 47°37' W 122°21'0 0.0
2018-Jul-13 22:28N 47°37' W 122°21'0 0.0
2018-Jul-13 21:58N 47°37' W 122°21'0 0.0
2018-Jul-13 21:28N 47°37' W 122°21'0 0.0
2018-Jul-13 20:52N 47°37' W 122°21'0 0.0
2018-Jul-13 20:23N 47°37' W 122°21'0 0.0
2018-Jul-13 19:58N 47°37' W 122°21'0 0.0
2018-Jul-13 19:28N 47°37' W 122°21'0 0.0
2018-Jul-13 18:58N 47°37' W 122°21'0 0.0
2018-Jul-13 18:28N 47°37' W 122°21'0 0.0
2018-Jul-13 17:58N 47°37' W 122°21'0 0.0
2018-Jul-13 17:28N 47°37' W 122°21'0 0.0
2018-Jul-13 16:55N 47°37' W 122°21'0 0.0
2018-Jul-13 16:28N 47°37' W 122°21'0 0.0
2018-Jul-13 15:58N 47°37' W 122°21'0 0.0
2018-Jul-13 15:25N 47°37' W 122°21'0 0.0
2018-Jul-13 14:59N 47°37' W 122°21'0 0.0
2018-Jul-13 13:58N 47°37' W 122°21'0 0.2
2018-Jul-13 13:30N 47°37' W 122°21'3 5.2
2018-Jul-13 13:00N 47°37' W 122°25'611.4
2018-Jul-13 12:30N 47°43' W 122°28'612.1
2018-Jul-13 12:00N 47°49' W 122°28'612.6
2018-Jul-13 11:30N 47°55' W 122°30'6114.1
2018-Jul-13 07:12N 48°14' W 123°56'418.1
2018-Jul-13 06:59N 48°15' W 124°02'817.9
2018-Jul-13 06:31N 48°19' W 124°13'917.3
2018-Jul-13 06:01N 48°23' W 124°25'917.1
2018-Jul-13 05:31N 48°26' W 124°36'916.3
2018-Jul-13 04:58N 48°29' W 124°49'716.1
2018-Jul-13 04:30N 48°29' W 125°00'816.3
2018-Jul-13 03:59N 48°30' W 125°13'917.3
2018-Jul-13 03:29N 48°34' W 125°25'918.2
2018-Jul-13 03:00N 48°38' W 125°36'918.5
2018-Jul-13 02:30N 48°43' W 125°48'918.7
2018-Jul-13 02:00N 48°47' W 126°01'918.3
2018-Jul-13 01:31N 48°53' W 126°12'1018.2
2018-Jul-13 00:58N 48°59' W 126°23'918.4
2018-Jul-13 00:30N 49°05' W 126°33'918.2
2018-Jul-13 00:00N 49°11' W 126°44'918.6
2018-Jul-12 23:30N 49°16' W 126°55'28417.8
2018-Jul-12 07:31N 53°18' W 130°52'1217.9
2018-Jul-12 06:52N 53°30' W 130°58'617.5
2018-Jul-12 06:30N 53°36' W 131°01'917.4
2018-Jul-12 06:00N 53°44' W 131°02'917.9
2018-Jul-12 05:30N 53°53' W 131°02'918.4
2018-Jul-12 05:00N 54°02' W 131°02'918.3
2018-Jul-12 04:30N 54°12' W 131°02'815.6
2018-Jul-12 04:00N 54°19' W 130°56'612.5
2018-Jul-12 03:31N 54°16' W 130°46'917.8
2018-Jul-12 03:00N 54°13' W 130°31'612.5
2018-Jul-12 02:30N 54°15' W 130°21'4 8.4
2018-Jul-12 02:00N 54°19' W 130°20'0 0.1
2018-Jul-11 22:42N 54°19' W 130°19'0 0.0
2018-Jul-11 22:24N 54°19' W 130°19'0 0.0
2018-Jul-11 21:54N 54°19' W 130°19'0 0.0
2018-Jul-11 21:30N 54°19' W 130°19'0 0.0
2018-Jul-11 20:59N 54°19' W 130°19'0 0.0
2018-Jul-11 20:29N 54°19' W 130°19'0 0.0
2018-Jul-11 19:59N 54°19' W 130°19'0 0.0
2018-Jul-11 19:29N 54°19' W 130°19'0 0.0
2018-Jul-11 18:59N 54°19' W 130°19'0 0.0
2018-Jul-11 18:29N 54°19' W 130°19'0 0.0
2018-Jul-11 17:53N 54°19' W 130°19'1 2.0
2018-Jul-11 17:30N 54°19' W 130°20'4 8.1
2018-Jul-11 17:00N 54°15' W 130°21'612.9
2018-Jul-11 16:30N 54°14' W 130°32'918.0
2018-Jul-11 16:01N 54°17' W 130°46'816.7
2018-Jul-11 15:30N 54°20' W 130°59'1019.8
2018-Jul-11 15:01N 54°22' W 131°16'  
Track history (hours):
 
Tides and Currents Weather Stations Pressure Air Temp Water Temp Dewpoint Dewpoint Depression Visibility Wind Speed Wind Dir Waves Ship Positions

Regatta

Last reported at 2018-Jul-20 04:33 UTC. Time now 2018-Jul-22 07:02 UTC.
Position N 58°18' W 136°13'.

Length 180 m; draft 5.7 m.

Type: Passenger vessel. MMSI: 538001664.

Date/timePositionNaut miles runAvg speedWind from/ knotsBaromVisibWave heightAir tempDewpointWater temp
2018-Jul-20 04:33N 58°18' W 136°13'117.6
2018-Jul-20 04:30N 58°18' W 136°12'917.0
2018-Jul-20 04:00N 58°19' W 135°55'917.3
2018-Jul-20 03:30N 58°16' W 135°40'7 0.5
2018-Jul-19 14:40N 58°13' W 135°29'412.5
2018-Jul-19 14:23N 58°15' W 135°35'1112.2
2018-Jul-19 13:30N 58°19' W 135°54'612.2
2018-Jul-19 13:00N 58°20' W 136°05'6 0.2
2018-Jul-18 08:36N 58°18' W 136°16'216.6
2018-Jul-18 08:28N 58°19' W 136°12'715.1
2018-Jul-18 08:00N 58°20' W 135°59'815.7
2018-Jul-18 07:30N 58°18' W 135°44'  
2018-Jul-15 12:35N 54°47' W 131°07'917.9
2018-Jul-15 12:05N 54°38' W 131°09'116.8
2018-Jul-15 12:00N 54°36' W 131°09'917.9
2018-Jul-15 11:30N 54°28' W 131°06'918.0
2018-Jul-15 11:01N 54°19' W 131°03'917.9
2018-Jul-15 10:31N 54°10' W 131°02'917.4
2018-Jul-15 10:00N 54°01' W 131°02'917.3
2018-Jul-15 09:30N 53°53' W 131°03'917.8
2018-Jul-15 09:00N 53°44' W 131°02'918.0
2018-Jul-15 08:30N 53°35' W 131°01'1618.1
2018-Jul-15 07:38N 53°20' W 130°53'418.2
2018-Jul-15 07:25N 53°16' W 130°50'1118.2
2018-Jul-15 06:48N 53°05' W 130°45'517.7
2018-Jul-15 06:30N 53°00' W 130°42'917.9
2018-Jul-15 06:00N 52°52' W 130°37'917.7
2018-Jul-15 05:30N 52°43' W 130°33'917.6
2018-Jul-15 05:00N 52°35' W 130°28'917.7
2018-Jul-15 04:29N 52°26' W 130°23'817.4
2018-Jul-15 04:00N 52°18' W 130°19'917.0
2018-Jul-15 03:30N 52°10' W 130°15'917.5
2018-Jul-15 03:00N 52°02' W 130°11'917.8
2018-Jul-15 02:31N 51°54' W 130°06'816.8
2018-Jul-15 02:00N 51°46' W 130°02'816.7
2018-Jul-15 01:30N 51°39' W 129°53'816.5
2018-Jul-15 01:00N 51°34' W 129°43'917.3
2018-Jul-15 00:30N 51°28' W 129°33'917.2
2018-Jul-15 00:00N 51°22' W 129°22'917.4
2018-Jul-14 23:31N 51°17' W 129°11'917.2
2018-Jul-14 23:00N 51°13' W 128°59'917.9
2018-Jul-14 22:30N 51°11' W 128°45'917.1
2018-Jul-14 22:01N 51°08' W 128°32'917.0
2018-Jul-14 21:31N 51°05' W 128°19'917.3
2018-Jul-14 21:00N 51°03' W 128°06'917.4
2018-Jul-14 20:30N 51°01' W 127°53'713.4
2018-Jul-14 20:00N 50°57' W 127°44'918.0
2018-Jul-14 19:30N 50°52' W 127°33'917.8
2018-Jul-14 19:00N 50°48' W 127°20'917.4
2018-Jul-14 18:30N 50°45' W 127°07'917.4
2018-Jul-14 17:59N 50°41' W 126°54'6017.7
2018-Jul-14 14:37N 50°20' W 125°26'1118.1
2018-Jul-14 14:00N 50°10' W 125°22'713.9
2018-Jul-14 13:30N 50°04' W 125°15'815.5
2018-Jul-14 13:00N 49°57' W 125°09'917.7
2018-Jul-14 12:30N 49°51' W 124°59'917.7
2018-Jul-14 12:00N 49°45' W 124°49'917.2
2018-Jul-14 11:29N 49°38' W 124°40'1117.0
2018-Jul-14 10:51N 49°30' W 124°30'816.7
2018-Jul-14 10:22N 49°26' W 124°19'3016.9
2018-Jul-14 08:36N 49°13' W 123°37'516.1
2018-Jul-14 08:16N 49°10' W 123°30'415.4
2018-Jul-14 08:00N 49°07' W 123°26'815.8
2018-Jul-14 07:30N 49°02' W 123°18'917.4
2018-Jul-14 06:59N 48°56' W 123°08'1014.7
2018-Jul-14 06:18N 48°47' W 123°02'516.3
2018-Jul-14 06:00N 48°44' W 123°08'713.7
2018-Jul-14 05:30N 48°38' W 123°14'917.4
2018-Jul-14 05:01N 48°30' W 123°11'714.3
2018-Jul-14 04:30N 48°23' W 123°15'3810.3
2018-Jul-14 00:51N 47°57' W 122°34'515.6
2018-Jul-14 00:31N 47°53' W 122°28'917.3
2018-Jul-14 00:00N 47°45' W 122°26'815.4
2018-Jul-13 23:30N 47°37' W 122°25'2 4.5
2018-Jul-13 22:58N 47°37' W 122°21'0 0.0
2018-Jul-13 22:28N 47°37' W 122°21'0 0.0
2018-Jul-13 21:58N 47°37' W 122°21'0 0.0
2018-Jul-13 21:28N 47°37' W 122°21'0 0.0
2018-Jul-13 20:52N 47°37' W 122°21'0 0.0
2018-Jul-13 20:23N 47°37' W 122°21'0 0.0
2018-Jul-13 19:58N 47°37' W 122°21'0 0.0
2018-Jul-13 19:28N 47°37' W 122°21'0 0.0
2018-Jul-13 18:58N 47°37' W 122°21'0 0.0
2018-Jul-13 18:28N 47°37' W 122°21'0 0.0
2018-Jul-13 17:58N 47°37' W 122°21'0 0.0
2018-Jul-13 17:28N 47°37' W 122°21'0 0.0
2018-Jul-13 16:55N 47°37' W 122°21'0 0.0
2018-Jul-13 16:28N 47°37' W 122°21'0 0.0
2018-Jul-13 15:58N 47°37' W 122°21'0 0.0
2018-Jul-13 15:25N 47°37' W 122°21'0 0.0
2018-Jul-13 14:59N 47°37' W 122°21'0 0.0
2018-Jul-13 13:58N 47°37' W 122°21'0 0.2
2018-Jul-13 13:30N 47°37' W 122°21'3 5.2
2018-Jul-13 13:00N 47°37' W 122°25'611.4
2018-Jul-13 12:30N 47°43' W 122°28'612.1
2018-Jul-13 12:00N 47°49' W 122°28'612.6
2018-Jul-13 11:30N 47°55' W 122°30'6114.1
2018-Jul-13 07:12N 48°14' W 123°56'418.1
2018-Jul-13 06:59N 48°15' W 124°02'817.9
2018-Jul-13 06:31N 48°19' W 124°13'917.3
2018-Jul-13 06:01N 48°23' W 124°25'917.1
2018-Jul-13 05:31N 48°26' W 124°36'916.3
2018-Jul-13 04:58N 48°29' W 124°49'716.1
2018-Jul-13 04:30N 48°29' W 125°00'816.3
2018-Jul-13 03:59N 48°30' W 125°13'917.3
2018-Jul-13 03:29N 48°34' W 125°25'918.2
2018-Jul-13 03:00N 48°38' W 125°36'918.5
2018-Jul-13 02:30N 48°43' W 125°48'918.7
2018-Jul-13 02:00N 48°47' W 126°01'918.3
2018-Jul-13 01:31N 48°53' W 126°12'1018.2
2018-Jul-13 00:58N 48°59' W 126°23'918.4
2018-Jul-13 00:30N 49°05' W 126°33'918.2
2018-Jul-13 00:00N 49°11' W 126°44'918.6
2018-Jul-12 23:30N 49°16' W 126°55'28417.8
2018-Jul-12 07:31N 53°18' W 130°52'1217.9
2018-Jul-12 06:52N 53°30' W 130°58'617.5
2018-Jul-12 06:30N 53°36' W 131°01'917.4
2018-Jul-12 06:00N 53°44' W 131°02'917.9
2018-Jul-12 05:30N 53°53' W 131°02'918.4
2018-Jul-12 05:00N 54°02' W 131°02'918.3
2018-Jul-12 04:30N 54°12' W 131°02'815.6
2018-Jul-12 04:00N 54°19' W 130°56'612.5
2018-Jul-12 03:31N 54°16' W 130°46'917.8
2018-Jul-12 03:00N 54°13' W 130°31'612.5
2018-Jul-12 02:30N 54°15' W 130°21'4 8.4
2018-Jul-12 02:00N 54°19' W 130°20'0 0.1
2018-Jul-11 22:42N 54°19' W 130°19'0 0.0
2018-Jul-11 22:24N 54°19' W 130°19'0 0.0
2018-Jul-11 21:54N 54°19' W 130°19'0 0.0
2018-Jul-11 21:30N 54°19' W 130°19'0 0.0
2018-Jul-11 20:59N 54°19' W 130°19'0 0.0
2018-Jul-11 20:29N 54°19' W 130°19'0 0.0
2018-Jul-11 19:59N 54°19' W 130°19'0 0.0
2018-Jul-11 19:29N 54°19' W 130°19'0 0.0
2018-Jul-11 18:59N 54°19' W 130°19'0 0.0
2018-Jul-11 18:29N 54°19' W 130°19'0 0.0
2018-Jul-11 17:53N 54°19' W 130°19'1 2.0
2018-Jul-11 17:30N 54°19' W 130°20'4 8.1
2018-Jul-11 17:00N 54°15' W 130°21'612.9
2018-Jul-11 16:30N 54°14' W 130°32'918.0
2018-Jul-11 16:01N 54°17' W 130°46'816.7
2018-Jul-11 15:30N 54°20' W 130°59'1019.8
2018-Jul-11 15:01N 54°22' W 131°16'  

Dump ship's entire track history